METAR Data
IDs: Format: Raw Decoded Include TAF

Data at: 2349 UTC 19 Jan 2019

METAR for:KSPB (Scappoose Ind Airpar, OR, US)
Text:KSPB 192253Z AUTO 34003KT 8SM OVC003 09/08 A3019 RMK AO2 CIG 002V007 SLP223 T00940078
Temperature: 9.4°C ( 49°F)
Dewpoint: 7.8°C ( 46°F) [RH = 90%]
Pressure (altimeter):30.19 inches Hg (1022.4 mb) [Sea level pressure: 1022.3 mb]
Winds:from the NNW (340 degrees) at 3 MPH (3 knots; 1.5 m/s)
Visibility: 8 sm ( 13 km)
Ceiling:300 feet AGL
Clouds: overcast cloud deck at 300 feet AGL
QC Flag:automated observation with no human augmentation